Time;durP1;ratioP1;P1;durP2;ratioP2;P2;SDS_P1;SDS_P2;PMS_P1;PMS_P2;Temp;Humidity;BMP_temperature;BMP_pressure;BME280_temperature;BME280_humidity;BME280_pressure;Samples;Min_cycle;Max_cycle;Signal;HPM_P1;HPM_P2
2022/08/18 00:01:39;;;;;;;10.13;3.30;;;;;;;29.50;47.03;96520.03;5116878;28;20039;-35
2022/08/18 00:04:06;;;;;;;8.82;3.20;;;;;;;29.51;46.89;96529.16;5116827;28;20131;-35
2022/08/18 00:06:31;;;;;;;8.25;2.92;;;;;;;29.62;46.63;96537.97;5116674;28;20024;-35
2022/08/18 00:08:59;;;;;;;15.50;3.10;;;;;;;29.50;47.09;96542.41;5116488;28;20497;-35
2022/08/18 00:11:27;;;;;;;10.70;3.97;;;;;;;29.61;46.71;96528.09;5116487;28;20023;-35
2022/08/18 00:13:52;;;;;;;7.05;2.75;;;;;;;29.55;46.81;96530.28;5116537;28;20106;-35
2022/08/18 00:16:17;;;;;;;11.40;3.55;;;;;;;29.54;46.95;96523.25;5116882;27;20043;-35
2022/08/18 00:18:43;;;;;;;10.10;3.42;;;;;;;29.46;47.13;96521.69;5116637;28;20059;-35
2022/08/18 00:21:08;;;;;;;10.07;3.45;;;;;;;29.63;46.62;96510.78;5116532;28;20026;-35
2022/08/18 00:23:34;;;;;;;7.18;3.15;;;;;;;29.48;46.82;96494.69;5115604;28;20024;-36
2022/08/18 00:25:59;;;;;;;9.13;3.17;;;;;;;29.63;46.54;96491.97;5116455;28;20029;-35
2022/08/18 00:28:25;;;;;;;8.90;2.83;;;;;;;29.52;46.81;96489.50;5116124;28;20020;-35
2022/08/18 00:30:50;;;;;;;10.13;3.30;;;;;;;29.50;46.87;96472.53;5116360;28;20473;-35
2022/08/18 00:33:16;;;;;;;6.68;2.97;;;;;;;29.53;46.88;96471.44;5116272;28;20408;-35
2022/08/18 00:35:41;;;;;;;7.63;3.15;;;;;;;29.46;46.78;96488.91;5116290;28;20084;-35
2022/08/18 00:38:07;;;;;;;8.93;3.13;;;;;;;29.59;46.70;96485.22;5116076;28;20015;-35
2022/08/18 00:40:41;;;;;;;8.07;3.20;;;;;;;29.62;46.32;96490.47;5116140;28;20106;-35
2022/08/18 00:43:11;;;;;;;8.55;3.30;;;;;;;29.53;46.67;96481.88;5116161;28;20121;-35
2022/08/18 00:45:40;;;;;;;7.15;2.88;;;;;;;29.46;46.81;96488.91;5116043;28;20019;-35
2022/08/18 00:48:09;;;;;;;10.13;3.30;;;;;;;29.54;46.29;96492.50;5115991;28;20024;-35
2022/08/18 00:50:57;;;;;;;8.50;2.88;;;;;;;29.56;46.37;96498.25;5116021;28;20072;-35
2022/08/18 00:53:26;;;;;;;10.05;3.55;;;;;;;29.52;46.46;96499.94;5116068;28;20056;-35
2022/08/18 00:55:53;;;;;;;6.40;3.25;;;;;;;29.50;46.24;96503.28;5115939;28;20023;-35
2022/08/18 00:58:26;;;;;;;9.32;4.28;;;;;;;29.53;46.68;96504.22;5115667;28;20023;-35
2022/08/18 01:00:51;;;;;;;7.88;3.10;;;;;;;29.47;46.56;96509.22;5115681;28;20024;-35
2022/08/18 01:03:20;;;;;;;12.02;3.83;;;;;;;29.45;46.57;96497.84;5115456;28;20016;-35
2022/08/18 01:05:58;;;;;;;6.82;2.95;;;;;;;29.41;46.74;96492.63;5115853;28;20076;-35
2022/08/18 01:08:25;;;;;;;10.32;3.58;;;;;;;29.38;46.78;96485.34;5115083;28;20071;-34
2022/08/18 01:10:50;;;;;;;5.63;2.72;;;;;;;29.41;46.57;96542.16;5115403;27;20504;-35
2022/08/18 01:13:16;;;;;;;7.20;3.20;;;;;;;29.54;46.29;96564.41;5115405;28;20023;-35
2022/08/18 01:15:42;;;;;;;8.05;3.42;;;;;;;29.37;46.85;96562.03;5115464;28;20049;-35
2022/08/18 01:24:11;;;;;;;6.47;3.15;;;;;;;29.46;46.78;96597.13;5115534;28;20069;-35
2022/08/18 01:26:49;;;;;;;8.93;3.58;;;;;;;29.53;46.24;96588.06;5115106;28;20112;-36
2022/08/18 01:29:17;;;;;;;10.52;3.28;;;;;;;29.34;46.93;96565.91;5115030;28;20036;-35
2022/08/18 01:31:55;;;;;;;10.23;3.20;;;;;;;29.32;46.79;96568.50;5115238;28;20027;-34
2022/08/18 01:34:24;;;;;;;8.40;3.72;;;;;;;29.35;47.06;96577.84;5114349;28;20031;-35
2022/08/18 01:36:54;;;;;;;7.60;3.00;;;;;;;29.32;47.00;96574.09;5115216;28;20398;-35
2022/08/18 01:39:21;;;;;;;7.95;3.08;;;;;;;29.32;47.05;96546.16;5115016;28;20011;-34
2022/08/18 01:41:46;;;;;;;8.95;3.42;;;;;;;29.49;46.45;96546.47;5114905;28;20024;-35
2022/08/18 01:44:12;;;;;;;8.18;3.08;;;;;;;29.52;46.72;96539.81;5114785;28;20031;-34
2022/08/18 01:46:40;;;;;;;8.43;3.30;;;;;;;29.48;46.60;96531.03;5115125;28;20027;-35
2022/08/18 01:49:07;;;;;;;10.23;3.35;;;;;;;29.43;46.52;96534.69;5114718;28;20023;-35
2022/08/18 01:51:33;;;;;;;12.65;3.50;;;;;;;29.44;46.55;96530.63;5114548;28;20052;-35
2022/08/18 01:54:00;;;;;;;9.02;3.30;;;;;;;29.33;46.73;96514.13;5114626;28;20030;-35
2022/08/18 01:56:26;;;;;;;10.07;3.75;;;;;;;29.39;46.62;96497.25;5114899;28;20028;-35
2022/08/18 01:58:53;;;;;;;8.65;3.38;;;;;;;29.46;46.33;96493.75;5114757;28;20023;-35
2022/08/18 02:01:21;;;;;;;12.00;3.50;;;;;;;29.42;46.35;96496.91;5114737;28;20028;-35
2022/08/18 02:03:54;;;;;;;8.73;3.35;;;;;;;29.39;46.55;96472.13;5114981;28;20030;-34
2022/08/18 02:06:19;;;;;;;;;;;;;;;29.33;46.85;96463.09;5114818;28;20019;-35
2022/08/18 02:08:46;;;;;;;9.20;3.40;;;;;;;29.35;46.37;96469.66;5114162;28;19990;-35
2022/08/18 02:11:12;;;;;;;8.88;3.10;;;;;;;29.34;46.31;96450.63;5114515;28;20019;-35
2022/08/18 02:13:39;;;;;;;11.40;4.07;;;;;;;29.34;46.33;96445.06;5114251;28;20526;-36
2022/08/18 02:16:06;;;;;;;17.90;4.10;;;;;;;29.32;46.32;96448.41;5114267;28;20401;-35
2022/08/18 02:18:36;;;;;;;7.60;3.30;;;;;;;29.46;45.77;96441.41;5114326;28;20065;-35
2022/08/18 02:21:13;;;;;;;12.02;3.70;;;;;;;29.47;45.93;96405.84;5114380;28;20023;-35
2022/08/18 02:23:40;;;;;;;9.55;3.40;;;;;;;29.49;45.98;96409.56;5114287;28;20028;-35
2022/08/18 02:26:09;;;;;;;9.85;3.65;;;;;;;29.49;45.66;96408.81;5114057;28;20035;-35
2022/08/18 02:28:35;;;;;;;12.30;3.70;;;;;;;29.42;45.91;96382.38;5113735;28;20058;-35
2022/08/18 02:31:10;;;;;;;10.05;3.60;;;;;;;29.45;45.63;96353.28;5112747;28;20118;-35
2022/08/18 02:33:35;;;;;;;7.10;3.03;;;;;;;29.52;45.71;96344.19;5112641;28;20092;-35
2022/08/18 02:36:01;;;;;;;10.90;4.00;;;;;;;29.46;45.92;96329.66;5114120;28;20470;-35
2022/08/18 02:38:27;;;;;;;8.15;3.45;;;;;;;29.38;46.10;96319.78;5113820;28;20059;-35
2022/08/18 02:40:58;;;;;;;11.88;3.75;;;;;;;29.44;46.15;96337.09;5113907;28;20109;-35
2022/08/18 02:43:24;;;;;;;8.30;3.22;;;;;;;29.31;46.40;96349.13;5113828;28;20466;-35
2022/08/18 02:45:49;;;;;;;9.38;3.88;;;;;;;29.48;45.91;96355.00;5113677;28;20038;-35
2022/08/18 02:48:15;;;;;;;12.35;3.42;;;;;;;29.48;46.12;96444.41;5113925;28;20028;-35
2022/08/18 02:50:46;;;;;;;11.15;3.53;;;;;;;29.57;45.99;96457.84;5113725;28;20061;-35
2022/08/18 02:53:23;;;;;;;7.05;3.20;;;;;;;29.40;46.55;96418.50;5113790;28;20068;-35
2022/08/18 02:55:48;;;;;;;8.65;3.25;;;;;;;29.49;46.12;96406.03;5113717;28;20500;-35
2022/08/18 02:58:14;;;;;;;9.45;3.90;;;;;;;29.51;46.59;96420.94;5113762;28;20023;-35
2022/08/18 03:00:40;;;;;;;9.38;3.78;;;;;;;29.30;47.18;96437.78;5113689;28;20392;-35
2022/08/18 03:03:05;;;;;;;10.10;3.55;;;;;;;29.42;47.04;96429.13;5113600;28;20055;-35
2022/08/18 03:05:31;;;;;;;13.18;3.80;;;;;;;29.45;46.91;96464.31;5113594;28;20024;-35
2022/08/18 03:07:58;;;;;;;11.77;3.85;;;;;;;29.40;46.95;96465.22;5113287;28;20047;-34
2022/08/18 03:10:24;;;;;;;7.95;3.20;;;;;;;29.05;47.90;96405.28;5113954;28;20504;-34
2022/08/18 03:12:50;;;;;;;13.50;3.58;;;;;;;28.47;49.95;96214.09;5113548;28;20027;-35
2022/08/18 03:15:15;;;;;;;20.88;4.18;;;;;;;27.82;51.22;96246.75;5113672;28;20526;-35
2022/08/18 03:17:41;;;;;;;17.45;3.95;;;;;;;28.24;50.42;96217.50;5113515;28;20389;-35
2022/08/18 03:20:07;;;;;;;20.35;4.43;;;;;;;28.74;48.63;96253.63;5113563;28;20497;-35
2022/08/18 03:22:32;;;;;;;14.00;3.78;;;;;;;29.04;47.57;96283.72;5113472;28;20389;-35
2022/08/18 03:24:58;;;;;;;13.77;3.53;;;;;;;29.16;47.36;96243.00;5113472;28;20482;-34
2022/08/18 03:27:24;;;;;;;9.50;3.55;;;;;;;29.24;46.92;96224.19;5113163;28;20030;-35
2022/08/18 03:29:50;;;;;;;13.77;3.90;;;;;;;29.31;46.90;96254.16;5113419;28;20028;-36
2022/08/18 03:32:16;;;;;;;13.07;3.63;;;;;;;29.39;46.34;96220.69;5113345;28;20024;-35
2022/08/18 03:34:42;;;;;;;11.63;4.25;;;;;;;29.38;46.54;96183.63;5113418;28;20050;-35
2022/08/18 03:37:08;;;;;;;11.40;3.30;;;;;;;29.43;46.10;96154.00;5113381;28;20028;-35
2022/08/18 03:39:34;;;;;;;11.43;3.20;;;;;;;29.44;46.21;96144.31;5113525;28;20465;-35
2022/08/18 03:41:59;;;;;;;12.35;3.53;;;;;;;29.48;45.84;96195.75;5113191;28;20027;-34
2022/08/18 03:44:26;;;;;;;11.43;3.35;;;;;;;29.46;45.85;96164.06;5113470;28;20066;-35
2022/08/18 03:46:52;;;;;;;6.55;2.85;;;;;;;29.41;45.54;96185.31;5113375;28;20509;-35
2022/08/18 03:49:19;;;;;;;9.68;2.85;;;;;;;29.45;45.64;96194.06;5113052;28;20023;-36
2022/08/18 03:51:45;;;;;;;10.60;3.38;;;;;;;29.51;45.40;96168.72;5112994;28;20034;-35
2022/08/18 03:54:12;;;;;;;7.38;2.85;;;;;;;29.42;45.41;96170.06;5113091;28;20051;-35
2022/08/18 03:56:39;;;;;;;11.32;3.13;;;;;;;29.31;45.37;96175.94;5113045;28;20024;-35
2022/08/18 03:59:11;;;;;;;9.77;3.00;;;;;;;29.43;45.16;96193.88;5115756;28;20074;-35
2022/08/18 04:01:39;;;;;;;8.73;3.08;;;;;;;29.46;44.93;96198.34;5116863;28;20028;-34
2022/08/18 04:04:09;;;;;;;7.22;2.92;;;;;;;29.35;45.37;96212.66;5117000;28;20088;-36
2022/08/18 04:06:47;;;;;;;10.38;3.63;;;;;;;29.39;44.34;96218.66;5116640;28;20019;-36
2022/08/18 04:09:14;;;;;;;10.82;3.30;;;;;;;29.01;42.47;96226.94;5116392;28;20050;-35
2022/08/18 04:11:44;;;;;;;10.55;3.13;;;;;;;29.14;41.13;96207.25;5116729;28;20071;-35
2022/08/18 04:14:13;;;;;;;8.80;3.13;;;;;;;29.23;41.77;96203.16;5116763;28;20030;-35
2022/08/18 04:16:39;;;;;;;7.65;3.13;;;;;;;29.33;41.69;96201.28;5116490;28;20111;-35
2022/08/18 04:19:06;;;;;;;12.25;3.45;;;;;;;29.30;42.03;96197.56;5115198;28;20027;-35
2022/08/18 04:21:34;;;;;;;8.15;3.17;;;;;;;29.37;42.19;96196.09;5116531;28;20365;-35
2022/08/18 04:24:02;;;;;;;8.02;2.67;;;;;;;29.35;42.08;96204.28;5116567;28;20024;-35
2022/08/18 04:26:28;;;;;;;11.50;3.63;;;;;;;29.39;42.09;96220.69;5116220;28;20066;-35
2022/08/18 04:28:54;;;;;;;12.70;3.55;;;;;;;29.42;42.78;96230.75;5116503;28;20441;-35
2022/08/18 04:31:23;;;;;;;9.18;3.38;;;;;;;29.43;42.78;96209.88;5116295;28;20111;-35
2022/08/18 04:33:49;;;;;;;8.77;3.42;;;;;;;29.42;42.47;96192.41;5116176;28;20117;-35
2022/08/18 04:36:16;;;;;;;8.30;2.80;;;;;;;29.39;42.56;96185.13;5116404;28;20106;-35
2022/08/18 04:38:42;;;;;;;5.88;2.97;;;;;;;29.38;42.80;96171.72;5116055;28;20385;-34
2022/08/18 04:41:09;;;;;;;7.40;2.85;;;;;;;29.42;42.24;96161.66;5116515;28;20080;-35
2022/08/18 04:43:34;;;;;;;9.23;2.92;;;;;;;29.36;42.68;96169.44;5116105;28;20104;-35
2022/08/18 04:46:03;;;;;;;9.77;3.00;;;;;;;29.39;42.28;96157.19;5115911;28;20027;-35
2022/08/18 04:48:39;;;;;;;11.40;3.08;;;;;;;29.28;43.15;96158.28;5115822;28;20023;-35
2022/08/18 04:51:11;;;;;;;10.13;3.33;;;;;;;29.30;42.49;96160.53;5116283;28;20019;-35
2022/08/18 04:53:46;;;;;;;8.50;2.60;;;;;;;29.40;42.51;96161.47;5116177;28;20110;-34
2022/08/18 04:56:27;;;;;;;6.78;2.85;;;;;;;29.36;41.84;96174.28;5116286;28;20513;-35
2022/08/18 04:58:59;;;;;;;8.80;3.00;;;;;;;29.36;42.63;96180.63;5116084;28;20480;-35
2022/08/18 05:01:29;;;;;;;7.95;2.83;;;;;;;29.38;42.33;96175.25;5114632;28;20073;-35
2022/08/18 05:03:56;;;;;;;14.00;2.97;;;;;;;29.37;42.59;96190.50;5116054;28;20028;-35
2022/08/18 05:06:24;;;;;;;7.10;3.00;;;;;;;29.36;42.51;96186.22;5115552;28;20061;-36
2022/08/18 05:08:55;;;;;;;7.82;2.97;;;;;;;29.39;42.85;96193.50;5115081;27;20517;-35
2022/08/18 05:11:24;;;;;;;9.68;3.40;;;;;;;29.33;42.74;96192.91;5115505;28;20047;-35
2022/08/18 05:13:51;;;;;;;4.90;2.92;;;;;;;29.38;42.48;96208.03;5115687;28;20020;-35
2022/08/18 05:16:17;;;;;;;5.97;3.13;;;;;;;29.37;42.75;96206.50;5115643;27;20063;-34
2022/08/18 05:18:43;;;;;;;8.20;2.65;;;;;;;29.27;42.55;96234.25;5115546;28;20106;-36
2022/08/18 05:21:13;;;;;;;9.90;3.38;;;;;;;29.05;41.61;96218.97;5115330;28;20106;-35
2022/08/18 05:23:41;;;;;;;9.55;3.40;;;;;;;29.12;41.47;96212.63;5115630;28;20116;-35
2022/08/18 05:26:07;;;;;;;13.13;3.28;;;;;;;29.12;41.55;96192.34;5115321;28;20377;-35
2022/08/18 05:28:36;;;;;;;10.50;3.58;;;;;;;29.13;42.47;96189.00;5114970;28;20027;-35
2022/08/18 05:31:13;;;;;;;12.98;3.25;;;;;;;29.13;40.33;96200.16;5115218;28;20095;-34
2022/08/18 05:33:40;;;;;;;12.23;3.53;;;;;;;29.00;41.01;96205.91;5115026;28;20027;-35
2022/08/18 05:36:30;;;;;;;15.07;4.95;;;;;;;29.18;39.94;96170.53;5114843;28;20051;-35
2022/08/18 05:39:19;;;;;;;11.10;2.88;;;;;;;29.15;40.49;96186.38;5110693;28;20427;-35
2022/08/18 05:41:52;;;;;;;10.35;2.83;;;;;;;29.28;40.75;96183.41;5114015;28;20092;-35
2022/08/18 05:44:24;;;;;;;9.27;2.95;;;;;;;29.35;40.82;96181.19;5114946;28;20030;-35
2022/08/18 05:46:57;;;;;;;8.30;2.80;;;;;;;29.35;40.88;96181.19;5114775;27;20072;-35
2022/08/18 05:49:25;;;;;;;12.32;2.70;;;;;;;29.30;41.10;96174.50;5114650;28;20549;-35
2022/08/18 05:51:59;;;;;;;10.48;3.15;;;;;;;29.29;41.39;96167.41;5114696;27;20389;-35
2022/08/18 05:57:18;;;;;;;10.68;3.45;;;;;;;29.32;41.39;96160.69;5114696;28;20481;-36
2022/08/18 05:59:46;;;;;;;9.00;3.08;;;;;;;29.34;41.52;96158.09;5114894;28;20445;-35
2022/08/18 06:02:33;;;;;;;7.20;2.50;;;;;;;29.35;41.51;96153.25;5114524;28;20489;-35
2022/08/18 06:05:05;;;;;;;7.75;3.13;;;;;;;29.36;41.52;96147.09;5114319;28;20023;-35
2022/08/18 06:07:30;;;;;;;8.27;3.28;;;;;;;29.31;41.54;96156.41;5114592;28;20470;-35
2022/08/18 06:09:56;;;;;;;11.38;3.10;;;;;;;29.35;41.57;96142.81;5114412;28;20103;-35
2022/08/18 06:12:32;;;;;;;11.02;3.25;;;;;;;29.33;41.94;96144.69;5114551;28;20045;-34
2022/08/18 06:15:17;;;;;;;11.85;3.45;;;;;;;29.32;41.38;96143.94;5114458;28;20428;-35
2022/08/18 06:18:10;;;;;;;9.05;3.00;;;;;;;29.27;41.34;96142.84;5109919;28;20050;-35
2022/08/18 06:21:03;;;;;;;9.77;3.10;;;;;;;29.23;41.71;96138.91;5113604;28;20535;-35
2022/08/18 06:23:47;;;;;;;;;;;;;;;29.25;40.84;96150.28;5114520;28;20532;-37
2022/08/18 06:26:22;;;;;;;13.73;3.60;;;;;;;29.07;39.66;96140.19;5114072;28;19918;-35
2022/08/18 06:28:51;;;;;;;13.15;3.55;;;;;;;28.98;36.67;96146.34;5115212;27;20023;-35
2022/08/18 06:31:28;;;;;;;10.30;3.17;;;;;;;28.91;37.87;96134.63;5128663;27;20126;-36
2022/08/18 06:34:23;;;;;;;16.15;3.03;;;;;;;29.12;37.56;96142.06;5128245;27;20080;-35
2022/08/18 06:36:53;;;;;;;10.55;2.85;;;;;;;29.18;39.37;96151.00;5106687;28;20358;-36
2022/08/18 06:39:25;;;;;;;18.50;4.13;;;;;;;28.95;38.85;96153.78;5112280;28;20023;-36
2022/08/18 06:41:52;;;;;;;8.57;2.47;;;;;;;29.29;38.71;96162.56;5112090;28;20028;-35
2022/08/18 06:44:47;;;;;;;14.75;3.70;;;;;;;29.37;39.34;96168.16;5112138;28;20024;-35
2022/08/18 06:47:19;;;;;;;9.95;3.40;;;;;;;29.38;39.93;96168.91;5125916;27;20031;-35
2022/08/18 06:50:05;;;;;;;16.98;3.40;;;;;;;29.38;39.90;96172.47;5132507;27;20053;-35
2022/08/18 06:52:37;;;;;;;9.77;3.05;;;;;;;29.35;39.99;96181.94;5132477;27;20421;-35
2022/08/18 06:55:15;;;;;;;12.55;3.95;;;;;;;29.32;39.60;96174.66;5131790;27;20038;-36
2022/08/18 06:58:04;;;;;;;13.20;3.63;;;;;;;29.32;40.05;96155.09;5129912;27;20058;-35
2022/08/18 07:00:33;;;;;;;12.18;3.33;;;;;;;29.35;39.34;96147.66;5131294;27;20113;-35
2022/08/18 07:03:14;;;;;;;16.70;3.78;;;;;;;29.32;38.33;96163.47;5132099;27;20030;-35
2022/08/18 07:06:03;;;;;;;16.10;3.53;;;;;;;29.41;39.06;96151.78;5132147;27;20055;-35
2022/08/18 07:08:35;;;;;;;15.23;3.65;;;;;;;29.33;38.25;96145.41;5131878;27;20493;-35
2022/08/18 07:11:20;;;;;;;8.52;2.72;;;;;;;29.28;39.11;96151.97;5132462;27;20019;-35
2022/08/18 07:13:49;;;;;;;8.38;3.17;;;;;;;29.36;39.56;96154.75;5132085;27;20027;-35
2022/08/18 07:16:17;;;;;;;12.20;3.10;;;;;;;29.35;39.38;96165.16;5132246;27;20028;-35
2022/08/18 07:18:43;;;;;;;10.15;2.97;;;;;;;29.35;39.09;96175.59;5132428;27;20503;-36
2022/08/18 07:21:29;;;;;;;17.95;3.80;;;;;;;29.30;39.03;96185.66;5134423;27;20027;-35
2022/08/18 07:24:07;;;;;;;10.13;2.88;;;;;;;29.11;39.99;96185.25;5134618;27;20112;-35
2022/08/18 07:27:01;;;;;;;13.95;3.53;;;;;;;29.07;37.96;96184.88;5132588;27;20034;-34
2022/08/18 07:29:29;;;;;;;14.20;3.95;;;;;;;29.02;37.61;96194.19;5132877;28;20361;-35
2022/08/18 07:31:58;;;;;;;14.98;3.10;;;;;;;29.21;37.77;96205.75;5134144;27;20586;-35
2022/08/18 07:34:36;;;;;;;15.68;3.00;;;;;;;29.07;37.01;96184.88;5137403;27;20027;-35
2022/08/18 07:37:07;;;;;;;13.45;3.10;;;;;;;29.13;37.59;96182.66;5137985;27;20068;-35
2022/08/18 07:39:49;;;;;;;18.15;4.40;;;;;;;29.02;38.38;96199.78;5137916;27;20022;-35
2022/08/18 07:42:55;;;;;;;21.25;3.55;;;;;;;28.99;38.04;96162.53;5136545;27;20029;-35
2022/08/18 07:45:32;;;;;;;12.32;3.38;;;;;;;28.89;37.71;96148.38;5137552;27;20049;-35
2022/08/18 07:48:06;;;;;;;16.92;3.42;;;;;;;29.04;35.82;96144.13;5137717;27;20054;-35
2022/08/18 07:51:11;;;;;;;16.85;3.58;;;;;;;29.15;36.67;96157.72;5137719;27;20098;-35
2022/08/18 07:54:00;;;;;;;11.32;2.90;;;;;;;29.27;35.54;96161.63;5137554;27;20463;-35
2022/08/18 07:56:46;;;;;;;16.95;3.17;;;;;;;28.97;35.84;96175.56;5137405;27;20026;-34
2022/08/18 07:59:24;;;;;;;22.05;3.47;;;;;;;29.21;36.48;96175.03;5137623;27;20153;-35
2022/08/18 08:02:13;;;;;;;13.45;3.25;;;;;;;29.30;36.32;96180.06;5137724;27;20024;-36
2022/08/18 08:05:25;;;;;;;16.83;3.70;;;;;;;29.25;34.68;96184.53;5137145;27;20035;-35
2022/08/18 08:08:19;;;;;;;18.33;3.28;;;;;;;29.16;35.74;96182.31;5135124;27;20490;-35
2022/08/18 08:11:45;;;;;;;20.38;3.63;;;;;;;29.22;35.86;96198.84;5137075;27;20039;-35
2022/08/18 08:14:32;;;;;;;20.60;3.55;;;;;;;29.12;36.28;96220.25;5136413;27;20477;-35
2022/08/18 08:17:22;;;;;;;15.48;3.75;;;;;;;29.29;36.51;96257.53;5137011;27;20023;-36
2022/08/18 08:19:51;;;;;;;17.05;5.30;;;;;;;29.40;35.84;96272.47;5136988;27;20018;-35
2022/08/18 08:22:25;;;;;;;16.95;4.65;;;;;;;29.46;35.54;96281.41;5137191;27;20023;-35
2022/08/18 08:24:50;;;;;;;24.58;5.18;;;;;;;29.27;35.85;96295.69;5136919;27;20031;-35
2022/08/18 08:27:30;;;;;;;17.42;5.10;;;;;;;28.95;35.61;96308.06;5137041;27;20027;-35
2022/08/18 08:30:15;;;;;;;17.67;4.65;;;;;;;28.89;36.24;96310.28;5136866;27;20111;-35
2022/08/18 08:33:03;;;;;;;13.98;3.97;;;;;;;28.83;35.33;96334.81;5136804;27;20495;-33
2022/08/18 08:35:44;;;;;;;18.33;4.15;;;;;;;28.93;34.78;96341.38;5135598;27;20030;-31
2022/08/18 08:38:41;;;;;;;18.10;4.10;;;;;;;29.12;35.67;96365.47;5135901;27;20031;-36
2022/08/18 08:41:14;;;;;;;19.52;4.53;;;;;;;29.13;35.20;96366.97;5135912;27;20039;-35
2022/08/18 08:43:46;;;;;;;15.63;3.72;;;;;;;29.11;35.42;96409.41;5136460;27;20466;-35
2022/08/18 08:46:20;;;;;;;18.73;3.70;;;;;;;29.06;36.09;96429.84;5136630;27;20026;-36
2022/08/18 08:48:54;;;;;;;19.45;4.32;;;;;;;28.89;36.24;96435.16;5136176;27;20027;-35
2022/08/18 08:51:22;;;;;;;17.55;3.83;;;;;;;28.93;37.17;96424.41;5136596;27;20026;-35
2022/08/18 08:53:54;;;;;;;19.38;4.22;;;;;;;29.14;37.04;96447.41;5136613;27;20015;-35
2022/08/18 08:56:23;;;;;;;16.65;3.75;;;;;;;29.14;37.48;96455.78;5136522;27;20023;-34
2022/08/18 08:58:59;;;;;;;13.88;3.30;;;;;;;29.15;38.08;96453.72;5136259;27;20041;-34
2022/08/18 09:01:48;;;;;;;21.38;4.53;;;;;;;29.14;37.79;96447.41;5136239;27;20030;-35
2022/08/18 09:04:46;;;;;;;14.57;3.80;;;;;;;29.07;37.79;96377.53;5135127;27;20029;-35
2022/08/18 09:07:46;;;;;;;19.45;3.88;;;;;;;29.03;38.32;96322.06;5136216;27;20027;-35
2022/08/18 09:10:36;;;;;;;20.13;4.70;;;;;;;28.88;38.08;96347.88;5134779;27;20035;-35
2022/08/18 09:13:08;;;;;;;16.10;3.40;;;;;;;28.94;38.20;96387.53;5136288;27;20024;-35
2022/08/18 09:16:06;;;;;;;22.58;4.18;;;;;;;29.04;38.18;96375.88;5115249;27;20027;-34
2022/08/18 09:18:55;;;;;;;13.85;3.80;;;;;;;29.01;38.02;96365.78;5113630;28;20138;-36
2022/08/18 09:21:24;;;;;;;21.77;3.72;;;;;;;29.11;38.05;96370.31;5115126;28;20020;-35
2022/08/18 09:23:56;;;;;;;16.92;3.75;;;;;;;29.08;38.25;96423.69;5115322;28;20054;-35
2022/08/18 09:26:38;;;;;;;16.43;4.30;;;;;;;28.99;38.25;96404.69;5115303;28;20023;-34
2022/08/18 09:29:13;;;;;;;12.55;3.00;;;;;;;29.00;38.56;96425.72;5115274;28;20028;-35
2022/08/18 09:31:42;;;;;;;11.52;3.58;;;;;;;29.08;38.43;96404.91;5115078;28;20063;-34
2022/08/18 09:34:40;;;;;;;18.88;4.47;;;;;;;29.18;38.50;96441.44;5115062;28;20023;-34
2022/08/18 09:37:21;;;;;;;13.38;3.15;;;;;;;29.00;38.97;96465.56;5113478;28;20065;-35
2022/08/18 09:42:52;;;;;;;15.90;3.75;;;;;;;28.99;39.72;96443.75;5106057;28;20516;-35
2022/08/18 09:45:30;;;;;;;17.95;4.25;;;;;;;29.00;40.70;96448.81;5094220;28;20031;-36
2022/08/18 09:48:22;;;;;;;13.27;3.33;;;;;;;28.88;40.60;96420.44;5094499;28;20476;-35
2022/08/18 09:50:55;;;;;;;16.00;3.35;;;;;;;28.88;41.30;96408.53;5094455;28;20036;-35
2022/08/18 09:53:52;;;;;;;15.15;3.22;;;;;;;28.87;40.96;96418.94;5094569;28;20028;-34
2022/08/18 09:56:49;;;;;;;12.10;3.20;;;;;;;29.08;40.85;96432.81;5093644;28;20421;-35
2022/08/18 09:59:51;;;;;;;11.43;3.40;;;;;;;28.98;42.69;96422.72;5094105;28;20023;-35
2022/08/18 10:02:29;;;;;;;13.23;3.30;;;;;;;28.97;43.02;96435.19;5082522;28;20378;-34
2022/08/18 10:05:14;;;;;;;21.23;4.20;;;;;;;28.98;42.88;96431.09;5093908;28;20048;-35
2022/08/18 10:07:42;;;;;;;15.95;4.55;;;;;;;28.98;42.81;96412.31;5094113;28;20027;-33
2022/08/18 10:10:36;;;;;;;15.20;4.05;;;;;;;28.86;43.19;96417.44;5093866;28;20042;-34
2022/08/18 10:13:39;;;;;;;13.40;3.40;;;;;;;28.85;43.70;96404.03;5094137;28;20470;-35
2022/08/18 10:16:20;;;;;;;16.58;3.75;;;;;;;29.00;43.00;96411.75;5093969;28;20160;-35
2022/08/18 10:18:48;;;;;;;15.20;3.63;;;;;;;29.12;42.56;96391.34;5093968;28;20028;-34
2022/08/18 10:21:26;;;;;;;19.25;4.40;;;;;;;29.47;43.44;96403.78;5093808;28;20024;-30
2022/08/18 10:23:52;;;;;;;19.17;3.80;;;;;;;30.07;42.19;96399.63;5092263;28;20027;-36
2022/08/18 10:26:29;;;;;;;20.00;3.92;;;;;;;30.30;42.19;96399.63;5094457;28;20032;-39
2022/08/18 10:29:04;;;;;;;17.95;3.78;;;;;;;30.84;40.98;96391.94;5093582;28;20032;-37
2022/08/18 10:31:50;;;;;;;12.20;3.65;;;;;;;30.96;41.32;96388.19;5093695;28;20024;-36
2022/08/18 10:34:37;;;;;;;17.83;4.10;;;;;;;30.90;41.29;96390.44;5093569;28;20028;-36
2022/08/18 10:37:25;;;;;;;12.10;3.05;;;;;;;31.14;40.36;96374.34;5093370;28;20478;-38
2022/08/18 10:39:56;;;;;;;12.60;3.92;;;;;;;31.39;40.23;96369.56;5115218;27;20019;-38
2022/08/18 10:42:41;;;;;;;15.50;4.55;;;;;;;31.02;40.93;96371.19;5116060;27;20568;-37
2022/08/18 10:45:13;;;;;;;14.32;3.60;;;;;;;31.36;40.88;96381.91;5118088;27;20033;-38
2022/08/18 10:47:40;;;;;;;14.65;4.28;;;;;;;31.57;40.41;96373.94;5132928;27;20023;-39
2022/08/18 10:50:18;;;;;;;15.80;3.63;;;;;;;31.65;41.77;96407.56;5132774;27;20031;-39
2022/08/18 10:53:04;;;;;;;17.27;4.20;;;;;;;31.51;41.08;96400.69;5132910;27;20027;-38
2022/08/18 10:55:36;;;;;;;15.10;3.88;;;;;;;31.48;40.46;96416.59;5132680;27;20054;-37
2022/08/18 10:58:34;;;;;;;14.53;3.97;;;;;;;31.29;42.41;96405.81;5120872;27;20543;-37
2022/08/18 11:01:08;;;;;;;15.88;4.28;;;;;;;31.68;40.72;96395.94;5112217;28;20244;-37
2022/08/18 11:03:41;;;;;;;13.48;3.90;;;;;;;31.59;40.86;96376.91;5111852;28;20023;-36
2022/08/18 11:06:13;;;;;;;13.07;4.18;;;;;;;31.92;40.24;96374.84;5112053;28;20035;-38
2022/08/18 11:08:47;;;;;;;13.38;3.70;;;;;;;32.05;39.83;96390.66;5115614;28;20059;-37
2022/08/18 11:11:19;;;;;;;15.90;4.75;;;;;;;31.43;41.88;96387.44;5116331;28;20070;-37
2022/08/18 11:14:19;;;;;;;13.80;3.47;;;;;;;31.16;42.69;96374.53;5115834;27;20030;-36
2022/08/18 11:17:06;;;;;;;15.98;3.95;;;;;;;31.45;42.23;96367.28;5116313;28;20027;-36
2022/08/18 11:19:40;;;;;;;16.60;4.22;;;;;;;31.52;41.62;96360.16;5116253;28;20102;-37
2022/08/18 11:22:30;;;;;;;12.77;4.28;;;;;;;31.21;42.88;96360.28;5116079;28;20681;-39
2022/08/18 11:24:56;;;;;;;13.70;3.95;;;;;;;31.44;41.77;96354.56;5116009;28;20434;-36
2022/08/18 11:27:28;;;;;;;10.82;3.50;;;;;;;31.49;41.90;96350.81;5115491;28;20027;-36
2022/08/18 11:29:57;;;;;;;11.43;3.65;;;;;;;31.78;40.72;96349.16;5115827;28;20024;-36
2022/08/18 11:32:26;;;;;;;11.75;3.85;;;;;;;31.15;43.85;96312.16;5115675;28;20085;-38
2022/08/18 11:34:57;;;;;;;15.98;4.90;;;;;;;31.21;42.89;96304.25;5115595;28;20020;-38
2022/08/18 11:37:42;;;;;;;13.27;3.75;;;;;;;31.12;44.41;96295.72;5115848;28;20067;-36
2022/08/18 11:40:25;;;;;;;12.77;4.15;;;;;;;30.95;44.42;96305.47;5109168;28;20482;-36
2022/08/18 11:43:01;;;;;;;16.60;4.95;;;;;;;30.85;45.06;96318.59;5083606;28;20032;-38
2022/08/18 11:45:35;;;;;;;13.35;4.63;;;;;;;30.83;44.46;96315.59;5078905;28;20070;-37
2022/08/18 11:48:44;;;;;;;19.35;4.50;;;;;;;30.82;45.36;96321.78;5079544;28;20027;-37
2022/08/18 11:51:16;;;;;;;21.65;5.13;;;;;;;30.95;44.52;96308.28;5077863;28;20118;-39
2022/08/18 11:53:48;;;;;;;14.63;4.85;;;;;;;30.88;44.56;96275.47;5078125;28;20036;-40
2022/08/18 11:56:13;;;;;;;15.52;4.25;;;;;;;30.88;44.34;96239.06;5078821;28;20130;-38
2022/08/18 11:58:45;;;;;;;14.23;4.10;;;;;;;30.86;45.15;96218.53;5079520;27;20032;-37
2022/08/18 12:01:30;;;;;;;19.33;4.60;;;;;;;30.85;44.89;96214.25;5078350;28;20135;-39
2022/08/18 12:03:58;;;;;;;14.68;4.28;;;;;;;30.90;44.94;96202.09;5079767;28;20133;-37
2022/08/18 12:06:30;;;;;;;20.67;4.60;;;;;;;30.88;45.39;96233.47;5078856;28;20028;-37
2022/08/18 12:09:04;;;;;;;15.43;4.35;;;;;;;30.87;44.90;96264.81;5077203;28;20047;-36
2022/08/18 12:11:51;;;;;;;20.02;5.18;;;;;;;30.81;45.16;96273.44;5077564;28;20546;-38
2022/08/18 12:14:20;;;;;;;20.70;4.63;;;;;;;30.85;45.60;96271.00;5075473;28;20039;-37